Κάμερα προς Χιονοδρομικό webcam facing ski center


Κάμερα προς Νότο webcam facing south


Ραντάρ Κεραυνών blitzortung!


Ραντάρ Βροχής rain snow radar


Άλλες σελίδες καιρού:

Hotel Skamnos

Arachova Weather Station

Skamnos Weather Station

Skamnos Weather2

Arachova Weather2

WU Skamnos

WU Arachova


Γειτονικοί σταθμοί:

Parnassos Snow Forecast

Parnassos Snow Report

Kelaria 1950m

Kelaria 2240m

Fterolaka 2080m



Thunderstorms From: 26-05-2017 14:00 Until: 28-05-2017 17:00 warning for: Thunderstorms Level: Orange info button
Αναμένονται ισχυρές καταιγίδες, συνοδευόμενες από έντονη βροχή. Severe thunderstorms accompanied by heavy rainfall are expected. 

Εκθέσεις METAR

  
1089 - Arachova Meteo, Greece
Distance from station: Ν 10km
Updated: 27-05-2017 14:34
Κυρίως νεφελώδης
Κυρίως νεφελώδης  
 Ανεμος από calm
'Ανεμος: Άπνοια
Θερμοκρασία:  15°C
Σημείο Δρόσου:  10°C
Υγρασία:  72%
Βαρόμετρο:  1012 hPa
Νεφελώδης:  Κυρίως νεφελώδης
Visibility:  9 km
Cloud details:  Κυρίως νεφελώδης 610 m
2017/05/27 11:34 1089 271134Z 00000KT 9000 BKN020 15/10 Q1012
1155 - Arachova2, Greece
Distance from station: Ν 10km
Updated: 27-05-2017 14:34
Κυρίως νεφελώδης
Κυρίως νεφελώδης  
 Ανεμος από ΑΝΑ
'Ανεμος: ΑΝΑ 6 km/h
Θερμοκρασία:  14°C
Σημείο Δρόσου:  10°C
Υγρασία:  77%
Βαρόμετρο:  1014 hPa
Νεφελώδης:  Κυρίως νεφελώδης
Visibility:  8 km
Cloud details:  Κυρίως νεφελώδης 457 m
2017/05/27 11:34 1155 271134Z 11203KT 8000 BKN015 14/10 Q1014
1184 - Arachova VillaFiloxenia, Greece
Distance from station: Ν 10km
Updated: 09-05-2017 15:04
NOT Current
Μερικώς νεφελώδης
Μερικώς νεφελώδης  
 Ανεμος από calm
'Ανεμος: Άπνοια
Θερμοκρασία:  17°C
Σημείο Δρόσου:  9°C
Υγρασία:  59%
Βαρόμετρο:  1007 hPa
Νεφελώδης:  Μερικώς νεφελώδης
Visibility:  10 km
Cloud details:  Μερικώς νεφελώδης 1006 m
2017/05/09 12:04 1184 091204Z 00000KT 9999 SCT033 17/09 Q1007
1250 - Parnassos Kelaria 1950m, Greece
Distance from station: Α 3km
Updated: 27-05-2017 14:34
Κυρίως νεφελώδης
Κυρίως νεφελώδης  
 Ανεμος από Δ
'Ανεμος: Δ 9 km/h
Θερμοκρασία:  6°C
Wind Chill:  4°C
Σημείο Δρόσου:  5°C
Υγρασία:  93%
Βαρόμετρο:  1016 hPa
Νεφελώδης:  Κυρίως νεφελώδης
Visibility:  6 km
Cloud details:  Κυρίως νεφελώδης 1219 m
2017/05/27 11:34 1250 271134Z 27005KT 6000 BKN040 06/05 Q1016
1126 - Parnassos Fterolaka 2080m, Greece
Distance from station: Α 3km
Updated: 21-03-2015 01:04
NOT Current
Λίγα σύννεφα
Λίγα σύννεφα  
 Ανεμος από calm
'Ανεμος: Άπνοια
Θερμοκρασία:  -11°C
Σημείο Δρόσου:  -11°C
Υγρασία:  100%
Βαρόμετρο:  1019 hPa
Νεφελώδης:  Λίγα σύννεφα
Visibility:  6 km
Cloud details:  Λίγα σύννεφα 305 m
2015/03/20 23:04 1126 202304Z 00000KT 6000 FEW010 M11/M11 Q1019
1382 - Parnassos Helcules 2240m, Greece
Distance from station: Α 3km
Updated: 20-04-2015 13:20
NOT Current
Ομίχλη
Ομίχλη  
 Ανεμος από ΝΔ
'Ανεμος: ΝΔ 7 km/h
Θερμοκρασία:  1°C
Wind Chill:  -2°C
Σημείο Δρόσου:  1°C
Υγρασία:  100%
Βαρόμετρο:  1009 hPa
Περίληψη:  Ομίχλη
Visibility:  5 km
2015/04/20 10:20 1382 201020Z 22504KT 5000 FG 01/01 Q1009
1219 - Anrikyra, Greece
Distance from station: Ν 40km
Updated: 27-05-2017 14:49
Κυρίως νεφελώδης
Κυρίως νεφελώδης  
 Ανεμος από Ν
'Ανεμος: Ν 11 km/h
Θερμοκρασία:  21°C
Σημείο Δρόσου:  13°C
Υγρασία:  60%
Βαρόμετρο:  1011 hPa
Νεφελώδης:  Κυρίως νεφελώδης
Visibility:  9 km
Cloud details:  Κυρίως νεφελώδης 945 m
2017/05/27 11:49 1219 271149Z 18006KT 9000 BKN031 21/13 Q1011
1015 - Galaxeidi, Greece
Distance from station: Ν 40km
Updated: 27-05-2017 14:48
Κυρίως νεφελώδης
Κυρίως νεφελώδης  
 Ανεμος από ΝΝΑ
'Ανεμος: ΝΝΑ 15 km/h
Θερμοκρασία:  24°C
Σημείο Δρόσου:  13°C
Υγρασία:  50%
Βαρόμετρο:  1021 hPa
Νεφελώδης:  Κυρίως νεφελώδης
Visibility:  10 km
Cloud details:  Κυρίως νεφελώδης 1311 m
2017/05/27 11:48 1015 271148Z 15708KT 9999 BKN043 24/13 Q1021
1088 - Amfikleia, Greece
Distance from station: Β 10km
Updated: 27-05-2017 14:49
Κυρίως νεφελώδης
Κυρίως νεφελώδης  
 Ανεμος από Β
'Ανεμος: Β 2 km/h
Θερμοκρασία:  22°C
Σημείο Δρόσου:  13°C
Υγρασία:  57%
Βαρόμετρο:  1012 hPa
Νεφελώδης:  Κυρίως νεφελώδης
Visibility:  10 km
Cloud details:  Κυρίως νεφελώδης 1189 m
2017/05/27 11:49 1088 271149Z 36001KT 9999 BKN039 22/13 Q1012
1337 - Polydroso, Greece
Distance from station: Β 10km
Updated: 27-05-2017 14:49
Μερικώς νεφελώδης
Μερικώς νεφελώδης  
 Ανεμος από calm
'Ανεμος: Άπνοια
Θερμοκρασία:  22°C
Σημείο Δρόσου:  13°C
Υγρασία:  57%
Βαρόμετρο:  1012 hPa
Νεφελώδης:  Μερικώς νεφελώδης
Visibility:  10 km
Cloud details:  Μερικώς νεφελώδης 1097 m
2017/05/27 11:49 1337 271149Z 00000KT 9999 SCT036 22/13 Q1012

Αρχικά scripts από  Saratoga-weather.org Adapted for the template by  Weerstation Leuven